Time;durP1;ratioP1;P1;durP2;ratioP2;P2;SDS_P1;SDS_P2;PMS_P1;PMS_P2;Temp;Humidity;BMP_temperature;BMP_pressure;BME280_temperature;BME280_humidity;BME280_pressure;Samples;Min_cycle;Max_cycle;Signal;HPM_P1;HPM_P2
2023/10/28 00:00:13;;;;;;;5.13;1.63;;;19.80;94.00;;;20.22;57.53;93960.31;5002647;28;20479;-66
2023/10/28 00:02:41;;;;;;;5.87;1.90;;;19.80;94.10;;;20.21;57.66;93956.81;5000477;28;20460;-61
2023/10/28 00:05:08;;;;;;;5.33;1.50;;;19.80;94.20;;;20.22;57.59;93957.63;5002148;28;20513;-67
2023/10/28 00:07:37;;;;;;;3.20;1.90;;;19.80;94.10;;;20.21;57.66;93972.81;5003054;28;21264;-67
2023/10/28 00:10:07;;;;;;;6.90;1.73;;;19.80;94.30;;;20.21;57.72;93972.03;5001534;28;20467;-61
2023/10/28 00:12:34;;;;;;;8.03;1.90;;;19.80;94.30;;;20.21;57.74;93974.69;5000399;28;20929;-67
2023/10/28 00:15:01;;;;;;;6.63;2.40;;;19.80;94.40;;;20.18;57.98;93972.47;5003926;28;20473;-68
2023/10/28 00:17:29;;;;;;;4.40;2.17;;;19.80;94.40;;;20.15;57.75;93973.72;5003516;28;20798;-67
2023/10/28 00:19:56;;;;;;;7.37;2.03;;;19.80;94.40;;;20.12;57.71;93965.34;5000559;28;20490;-63
2023/10/28 00:22:24;;;;;;;10.57;2.40;;;19.70;94.40;;;20.09;57.84;93960.44;5001709;28;20449;-61
2023/10/28 00:24:53;;;;;;;8.63;2.40;;;19.70;94.50;;;20.03;58.30;93976.31;5002870;28;20478;-67
2023/10/28 00:27:20;;;;;;;7.63;2.10;;;19.70;94.60;;;19.99;58.01;93971.63;5001095;28;20526;-61
2023/10/28 00:29:51;;;;;;;9.07;3.10;;;19.60;94.70;;;19.94;58.18;93977.63;5001629;28;20470;-67
2023/10/28 00:32:22;;;;;;;5.03;2.00;;;19.60;94.80;;;19.91;58.24;93975.41;5001955;28;20443;-68
2023/10/28 00:34:49;;;;;;;3.80;1.93;;;19.50;94.80;;;19.88;58.11;93978.50;5000924;28;20466;-68
2023/10/28 00:37:17;;;;;;;6.93;2.13;;;19.50;94.90;;;19.83;58.28;93984.50;5003887;28;20462;-66
2023/10/28 00:39:44;;;;;;;9.17;2.10;;;19.50;95.50;;;19.81;58.90;93983.06;5002613;28;20564;-60
2023/10/28 00:42:16;;;;;;;7.20;2.03;;;19.40;95.20;;;19.77;58.81;93988.03;4999487;28;20447;-62
2023/10/28 00:44:43;;;;;;;3.10;2.30;;;19.40;95.40;;;19.74;58.44;93982.31;5000638;28;20482;-66
2023/10/28 00:47:11;;;;;;;5.23;1.47;;;19.40;95.40;;;19.69;58.87;93981.09;5002646;28;20844;-66
2023/10/28 00:49:39;;;;;;;4.37;2.13;;;19.30;95.40;;;19.65;58.94;93979.88;5000909;28;20485;-61
2023/10/28 00:52:07;;;;;;;5.83;2.20;;;19.30;95.50;;;19.62;58.71;93984.84;4999617;28;20470;-66
2023/10/28 00:54:34;;;;;;;3.67;1.67;;;19.30;95.60;;;19.59;59.15;93982.63;5001696;28;20473;-61
2023/10/28 00:57:01;;;;;;;4.57;2.10;;;19.20;95.70;;;19.56;59.24;93980.38;5001998;28;20560;-66
2023/10/28 00:59:30;;;;;;;10.27;3.27;;;19.20;95.90;;;19.53;59.46;93987.81;4999638;28;20483;-67
2023/10/28 01:01:57;;;;;;;4.13;1.80;;;19.20;96.10;;;19.52;59.16;93980.00;5000303;28;20478;-66
2023/10/28 01:04:25;;;;;;;4.47;2.17;;;19.10;96.00;;;19.52;59.30;93988.03;5002829;28;20476;-66
2023/10/28 01:06:53;;;;;;;5.23;2.10;;;19.10;96.50;;;19.50;59.71;93982.91;5000940;28;20496;-61
2023/10/28 01:09:21;;;;;;;8.80;2.10;;;19.10;96.20;;;19.49;59.20;93991.13;5001689;28;20493;-64
2023/10/28 01:11:48;;;;;;;7.60;1.87;;;19.10;96.20;;;19.50;59.26;93984.72;5000325;28;20459;-61
2023/10/28 01:14:15;;;;;;;5.00;1.50;;;19.10;96.20;;;19.52;59.94;93988.03;4999846;28;20485;-66
2023/10/28 01:16:45;;;;;;;5.07;2.00;;;19.10;96.60;;;19.55;59.64;93984.91;5001663;28;20460;-60
2023/10/28 01:19:12;;;;;;;3.47;1.73;;;19.10;96.30;;;19.60;59.60;93998.41;5001366;28;20576;-67
2023/10/28 01:21:41;;;;;;;4.10;1.47;;;19.20;96.50;;;19.62;59.45;93984.84;4999910;28;20951;-61
2023/10/28 01:24:09;;;;;;;2.10;1.47;;;19.20;96.30;;;19.64;59.08;93988.13;5000981;28;20505;-60
2023/10/28 01:26:37;;;;;;;5.00;1.80;;;19.20;96.20;;;19.66;59.39;93992.22;5001933;28;20838;-66
2023/10/28 01:29:05;;;;;;;5.10;2.03;;;19.30;96.30;;;19.69;59.15;93986.44;4998847;28;20502;-61
2023/10/28 01:31:33;;;;;;;7.23;2.27;;;19.30;96.30;;;19.71;59.29;93983.56;4999763;28;20453;-61
2023/10/28 01:34:00;;;;;;;2.47;1.40;;;19.30;96.40;;;19.75;59.09;93983.91;5001677;28;20457;-66
2023/10/28 01:36:29;;;;;;;7.83;1.80;;;19.40;96.30;;;19.76;59.54;93973.03;5000440;28;21156;-66
2023/10/28 01:38:56;;;;;;;3.67;1.27;;;19.40;96.30;;;19.79;59.40;93977.16;4999350;28;20446;-62
2023/10/28 01:41:24;;;;;;;9.80;2.03;;;19.40;96.30;;;19.80;58.92;93973.44;5000515;28;20774;-61
2023/10/28 01:43:51;;;;;;;10.67;1.77;;;19.40;96.30;;;19.82;59.21;93969.50;5001814;28;20996;-63
2023/10/28 01:46:18;;;;;;;2.80;1.50;;;19.40;96.20;;;19.83;59.17;93983.66;4999933;28;20459;-61
2023/10/28 01:48:46;;;;;;;5.67;1.83;;;19.50;96.20;;;19.83;59.29;93979.16;4999498;28;20586;-61
2023/10/28 01:51:14;;;;;;;10.17;1.50;;;19.50;96.30;;;19.84;58.78;93966.63;5003119;28;20805;-67
2023/10/28 01:53:41;;;;;;;3.50;2.07;;;19.50;96.10;;;19.84;59.05;93969.28;5000420;28;20459;-59
2023/10/28 01:56:10;;;;;;;6.20;1.50;;;19.50;96.20;;;19.85;59.02;93985.09;4998953;28;20454;-61
2023/10/28 01:58:37;;;;;;;4.33;2.70;;;19.50;96.20;;;19.86;58.91;93985.91;5001408;28;20533;-66
2023/10/28 02:01:05;;;;;;;3.23;1.37;;;19.50;96.10;;;19.87;59.17;93999.03;5003485;28;20505;-61
2023/10/28 02:03:32;;;;;;;4.43;1.83;;;19.50;96.10;;;19.88;58.73;93995.31;5003097;28;20454;-61
2023/10/28 02:06:00;;;;;;;3.67;1.50;;;19.50;96.10;;;19.90;58.71;93997.78;4999905;28;20476;-61
2023/10/28 02:08:27;;;;;;;5.70;1.50;;;19.50;96.10;;;19.92;58.83;94006.38;5004520;28;21053;-67
2023/10/28 02:10:55;;;;;;;4.90;1.77;;;19.50;96.00;;;19.93;58.96;94008.00;4998213;28;20552;-60
2023/10/28 02:13:23;;;;;;;9.23;1.30;;;19.50;96.00;;;19.93;58.75;94008.00;5007693;28;20454;-67
2023/10/28 02:15:51;;;;;;;4.40;1.77;;;19.50;96.00;;;19.94;58.78;94011.50;5000935;28;20492;-61
2023/10/28 02:18:19;;;;;;;5.10;1.50;;;19.50;96.00;;;19.93;58.89;94010.69;5004140;28;20480;-67
2023/10/28 02:20:46;;;;;;;4.80;1.53;;;19.50;95.90;;;19.94;58.43;94009.66;4999031;28;20474;-67
2023/10/28 02:23:14;;;;;;;8.10;1.43;;;19.60;95.80;;;19.94;58.37;94009.66;4999903;28;20454;-61
2023/10/28 02:25:42;;;;;;;2.80;0.90;;;19.50;95.70;;;19.96;58.22;94004.09;5000899;28;20556;-60
2023/10/28 02:28:10;;;;;;;2.07;1.60;;;19.60;95.70;;;19.97;58.38;94006.56;5000162;28;20576;-67
2023/10/28 02:30:40;;;;;;;2.83;1.30;;;19.60;95.60;;;19.98;58.46;94005.50;4999038;28;20497;-60
2023/10/28 02:33:07;;;;;;;6.90;1.50;;;19.60;95.50;;;20.01;58.04;94010.41;5000849;28;20867;-66
2023/10/28 02:35:34;;;;;;;3.00;1.20;;;19.60;95.40;;;20.02;58.07;94006.69;5001086;28;20560;-67
2023/10/28 02:38:02;;;;;;;1.73;1.30;;;19.60;95.30;;;20.03;57.66;94008.34;5001185;28;20454;-66
2023/10/28 02:40:29;;;;;;;5.10;1.57;;;19.60;95.30;;;20.04;57.78;94009.16;5003128;28;21043;-60
2023/10/28 02:42:56;;;;;;;1.77;0.93;;;19.70;95.20;;;20.05;57.99;94000.13;5004048;28;20450;-61
2023/10/28 02:45:23;;;;;;;5.63;1.33;;;19.70;95.20;;;20.03;57.60;94003.00;5007443;28;20560;-65
2023/10/28 02:47:52;;;;;;;5.97;1.50;;;19.60;95.00;;;20.01;57.64;94005.06;5006097;28;20454;-60
2023/10/28 02:50:19;;;;;;;8.43;1.63;;;19.60;95.00;;;19.97;57.86;94003.03;5003852;28;21025;-60
2023/10/28 02:52:47;;;;;;;4.83;1.50;;;19.60;95.00;;;19.94;57.71;94007.00;5003275;28;20458;-60
2023/10/28 02:55:15;;;;;;;5.70;1.77;;;19.60;95.00;;;19.92;57.52;94014.38;5004827;28;20499;-60
2023/10/28 02:57:43;;;;;;;4.07;1.20;;;19.50;94.90;;;19.90;57.72;94019.13;5003649;28;20528;-66
2023/10/28 03:00:12;;;;;;;7.03;1.90;;;19.50;95.00;;;19.89;57.86;94012.16;5002356;28;20626;-60
2023/10/28 03:02:39;;;;;;;7.60;1.50;;;19.50;95.00;;;19.89;57.80;94009.47;5005690;28;20453;-66
2023/10/28 03:05:09;;;;;;;4.17;1.27;;;19.50;95.10;;;19.85;57.69;94001.09;5004586;28;20469;-70
2023/10/28 03:07:36;;;;;;;7.13;1.63;;;19.50;95.10;;;19.87;57.90;94004.34;5002846;28;20446;-60
2023/10/28 03:10:04;;;;;;;12.83;1.80;;;19.50;95.10;;;19.86;58.04;94013.41;5002827;28;20525;-62
2023/10/28 03:12:31;;;;;;;6.40;1.60;;;19.50;95.10;;;19.83;57.91;94007.69;5004758;28;20458;-61
2023/10/28 03:14:59;;;;;;;6.03;1.10;;;19.50;95.20;;;19.84;58.26;94006.66;5004554;28;20840;-60
2023/10/28 03:17:26;;;;;;;1.87;1.50;;;19.40;95.20;;;19.82;58.25;94000.72;5001861;28;21095;-68
2023/10/28 03:19:53;;;;;;;5.87;1.40;;;19.50;95.20;;;19.83;57.95;94007.69;5008335;28;20477;-60
2023/10/28 03:22:22;;;;;;;9.73;1.67;;;19.50;95.20;;;19.82;57.94;94022.88;5002409;28;20465;-66
2023/10/28 03:24:50;;;;;;;3.77;1.33;;;19.50;95.20;;;19.83;57.93;94015.69;5001812;28;20481;-61
2023/10/28 03:27:17;;;;;;;8.13;1.53;;;19.50;95.20;;;19.83;57.89;94023.69;5002409;28;20537;-61
2023/10/28 03:29:45;;;;;;;6.57;1.43;;;19.50;95.20;;;19.83;57.76;94021.03;5004065;28;20524;-63
2023/10/28 03:32:12;;;;;;;3.00;1.30;;;19.50;95.10;;;19.85;57.80;94035.00;5003112;28;20831;-61
2023/10/28 03:34:40;;;;;;;1.93;0.93;;;19.50;95.10;;;19.84;57.85;94030.69;5006558;28;20588;-67
2023/10/28 03:37:07;;;;;;;4.20;1.00;;;19.50;95.00;;;19.84;57.78;94033.34;5002521;28;20462;-66
2023/10/28 03:39:38;;;;;;;5.50;1.27;;;19.50;95.00;;;19.84;57.90;94036.81;5002045;28;20486;-67
2023/10/28 03:42:06;;;;;;;4.30;1.10;;;19.50;95.00;;;19.85;57.67;94035.00;5002097;28;20489;-60
2023/10/28 03:44:34;;;;;;;4.53;1.73;;;19.50;94.90;;;19.86;57.64;94041.94;5002163;28;20540;-66
2023/10/28 03:47:01;;;;;;;6.37;1.40;;;19.50;94.90;;;19.85;57.41;94037.66;5004098;28;20450;-60
2023/10/28 03:49:28;;;;;;;4.63;1.40;;;19.50;94.80;;;19.87;57.64;94040.91;5002547;28;20880;-60
2023/10/28 03:51:55;;;;;;;3.10;1.33;;;19.50;94.80;;;19.88;57.39;94043.38;5000365;28;20541;-63
2023/10/28 03:54:23;;;;;;;4.00;1.43;;;19.50;94.80;;;19.90;57.65;94045.81;5003607;28;20478;-59
2023/10/28 03:56:51;;;;;;;2.40;1.33;;;19.50;94.70;;;19.92;57.60;94046.41;5002902;28;20456;-67
2023/10/28 03:59:19;;;;;;;7.57;1.47;;;19.50;94.70;;;19.93;57.41;94053.38;5000151;28;20486;-66
2023/10/28 04:01:47;;;;;;;2.40;1.10;;;19.50;94.70;;;19.95;57.41;94048.63;5002227;28;20971;-68
2023/10/28 04:04:14;;;;;;;3.30;1.67;;;19.50;94.70;;;19.94;57.23;94057.69;5002626;28;20465;-62
2023/10/28 04:06:41;;;;;;;5.30;1.67;;;19.60;94.60;;;19.94;57.11;94057.69;5002134;28;20482;-61
2023/10/28 04:09:09;;;;;;;5.27;1.57;;;19.50;94.50;;;19.94;57.21;94059.53;5001189;28;21007;-66
2023/10/28 04:11:37;;;;;;;4.00;1.23;;;19.50;94.50;;;19.96;57.35;94060.97;5001670;28;20569;-61
2023/10/28 04:14:06;;;;;;;4.97;1.40;;;19.60;94.50;;;19.94;57.11;94056.88;5001807;28;20509;-67
2023/10/28 04:16:33;;;;;;;4.57;1.63;;;19.50;94.40;;;19.93;57.31;94065.94;5003476;28;20453;-69
2023/10/28 04:19:00;;;;;;;5.97;1.80;;;19.50;94.30;;;19.91;57.02;94068.81;5002556;28;20453;-62
2023/10/28 04:21:29;;;;;;;18.30;8.03;;;19.50;94.40;;;19.89;57.25;94070.84;5000390;28;20493;-60
2023/10/28 04:23:56;;;;;;;13.17;7.90;;;19.50;94.40;;;19.83;57.34;94087.75;5004420;28;20950;-65
2023/10/28 04:26:23;;;;;;;13.03;5.90;;;19.50;94.50;;;19.71;57.52;94085.75;5004531;28;20455;-68
2023/10/28 04:28:50;;;;;;;9.90;4.10;;;19.40;94.70;;;19.58;57.87;94095.69;5000718;28;20552;-67
2023/10/28 04:31:19;;;;;;;8.77;3.83;;;19.30;94.90;;;19.43;58.19;94088.00;5002175;28;20565;-66
2023/10/28 04:33:47;;;;;;;6.80;2.90;;;19.10;95.10;;;19.31;58.48;94091.31;5002043;28;20460;-61
2023/10/28 04:36:14;;;;;;;6.77;3.23;;;19.00;95.20;;;19.17;58.75;94095.88;5001214;28;20971;-68
2023/10/28 04:38:42;;;;;;;6.60;3.47;;;18.90;95.50;;;19.09;59.05;94095.34;5000634;28;20903;-66
2023/10/28 04:41:09;;;;;;;3.83;2.00;;;18.80;95.80;;;18.99;59.28;94093.09;5000990;28;20569;-61
2023/10/28 04:43:36;;;;;;;12.27;3.50;;;18.70;96.00;;;18.89;59.70;94098.06;5000862;28;20490;-60
2023/10/28 04:46:04;;;;;;;7.30;2.67;;;18.60;96.30;;;18.79;60.05;94099.28;5002029;28;21017;-61
2023/10/28 04:48:33;;;;;;;5.63;3.20;;;18.50;96.60;;;18.71;59.98;94096.03;5001395;28;20454;-61
2023/10/28 04:51:02;;;;;;;5.50;2.87;;;18.40;96.80;;;18.64;60.61;94096.88;4999618;28;20502;-67
2023/10/28 04:53:30;;;;;;;12.80;3.37;;;18.30;96.90;;;18.59;60.78;94091.34;5002170;28;20524;-67
2023/10/28 04:56:00;;;;;;;9.80;3.67;;;18.30;97.20;;;18.54;60.92;94104.47;5003293;28;20540;-67
2023/10/28 04:58:28;;;;;;;11.17;4.00;;;18.20;97.40;;;18.47;60.87;94101.00;5001001;28;20443;-66
2023/10/28 05:00:55;;;;;;;7.67;3.60;;;18.10;97.50;;;18.42;61.08;94108.81;4999672;28;20486;-65
2023/10/28 05:03:22;;;;;;;10.53;4.13;;;18.10;97.80;;;18.37;61.00;94105.94;4999153;28;20451;-67
2023/10/28 05:05:51;;;;;;;11.77;4.13;;;18.00;97.90;;;18.33;61.65;94110.06;5000567;28;20506;-66
2023/10/28 05:08:20;;;;;;;11.80;3.77;;;18.00;98.00;;;18.29;61.76;94106.97;5002123;28;20516;-62
2023/10/28 05:10:47;;;;;;;7.93;3.70;;;18.00;98.30;;;18.27;61.55;94120.47;5001122;28;20491;-64
2023/10/28 05:13:14;;;;;;;14.53;5.20;;;17.90;98.30;;;18.26;61.55;94123.34;4999734;28;20565;-65
2023/10/28 05:15:42;;;;;;;8.63;4.90;;;17.90;98.30;;;18.22;61.51;94124.81;5001177;28;20962;-65
2023/10/28 05:18:09;;;;;;;7.93;4.87;;;17.90;98.40;;;18.21;61.89;94123.97;5002535;28;20447;-66
2023/10/28 05:20:36;;;;;;;28.17;7.37;;;17.90;98.70;;;18.19;61.90;94142.00;5002333;28;20475;-70
2023/10/28 05:23:05;;;;;;;13.87;4.40;;;17.90;98.80;;;18.19;62.51;94143.84;5003361;28;20470;-64
2023/10/28 05:25:32;;;;;;;10.30;4.73;;;17.90;98.80;;;18.15;61.91;94148.72;5001778;28;20476;-65
2023/10/28 05:28:01;;;;;;;16.83;5.00;;;17.80;98.80;;;18.12;62.38;94157.13;4997918;28;20967;-62
2023/10/28 05:30:28;;;;;;;9.10;5.60;;;17.80;98.90;;;18.09;62.24;94157.53;5009535;28;20497;-63
2023/10/28 05:32:55;;;;;;;7.00;4.63;;;17.70;99.00;;;18.06;62.31;94158.78;5004000;28;20449;-65
2023/10/28 05:35:23;;;;;;;12.23;5.07;;;17.70;99.10;;;18.07;62.49;94165.72;5005112;28;20470;-64
2023/10/28 05:37:50;;;;;;;8.17;4.70;;;17.70;99.30;;;18.07;62.74;94165.72;5002728;28;20457;-66
2023/10/28 05:40:19;;;;;;;9.40;4.40;;;17.70;99.20;;;18.10;62.26;94167.16;5000944;28;20496;-67
2023/10/28 05:42:47;;;;;;;10.57;4.23;;;17.80;99.30;;;18.11;62.55;94176.81;4999780;28;20493;-66
2023/10/28 05:45:14;;;;;;;10.90;4.57;;;17.80;99.30;;;18.09;62.00;94176.16;5000806;28;20986;-66
2023/10/28 05:47:41;;;;;;;8.27;5.10;;;17.80;99.20;;;18.05;62.96;94182.94;5001655;28;20962;-64
2023/10/28 05:50:10;;;;;;;14.03;4.93;;;17.70;99.30;;;18.02;62.38;94188.66;4999322;28;20867;-64
2023/10/28 05:52:38;;;;;;;9.83;4.57;;;17.70;99.40;;;18.01;62.95;94179.84;4999467;28;20451;-65
2023/10/28 05:55:07;;;;;;;22.83;4.73;;;17.70;99.50;;;17.99;62.67;94191.72;5001366;28;20465;-67
2023/10/28 05:57:36;;;;;;;16.17;6.00;;;17.70;99.50;;;17.99;63.35;94200.53;5000721;28;20464;-62
2023/10/28 06:00:03;;;;;;;11.10;5.67;;;17.70;99.90;;;18.02;63.07;94200.13;4998882;28;20486;-62
2023/10/28 06:02:31;;;;;;;12.63;5.40;;;17.70;99.70;;;18.12;63.39;94204.22;4999849;28;20462;-63
2023/10/28 06:04:58;;;;;;;9.47;6.03;;;17.80;99.90;;;18.30;63.50;94200.97;4998595;28;20483;-67
2023/10/28 06:07:25;;;;;;;14.73;5.73;;;17.90;99.90;;;18.57;62.68;94210.56;5002351;28;20469;-67
2023/10/28 06:09:53;;;;;;;13.63;5.93;;;18.10;99.70;;;18.84;62.21;94207.91;5000966;28;20503;-67
2023/10/28 06:12:20;;;;;;;7.60;5.23;;;18.40;99.60;;;19.19;61.19;94204.97;4999105;28;20458;-66
2023/10/28 06:14:49;;;;;;;13.40;6.93;;;18.70;99.30;;;19.60;60.79;94205.69;5002217;28;20489;-63
2023/10/28 06:17:18;;;;;;;36.33;7.47;;;19.00;98.80;;;20.05;60.10;94217.16;5001443;28;20501;-67
2023/10/28 06:19:45;;;;;;;11.27;5.90;;;19.40;98.50;;;20.49;59.17;94214.59;5000439;28;20476;-67
2023/10/28 06:22:13;;;;;;;9.60;4.57;;;19.90;98.00;;;21.00;58.24;94219.97;5001424;28;20446;-64
2023/10/28 06:24:40;;;;;;;18.83;5.63;;;20.30;97.30;;;21.48;57.75;94232.63;4998163;28;20489;-63
2023/10/28 06:27:08;;;;;;;15.47;5.13;;;20.80;97.00;;;21.93;56.24;94240.34;4998851;28;20465;-67
2023/10/28 06:29:36;;;;;;;19.37;5.60;;;21.20;95.80;;;22.29;55.71;94254.72;5001132;28;20496;-66
2023/10/28 06:32:06;;;;;;;15.83;7.27;;;21.60;94.70;;;22.67;54.58;94255.41;4999324;28;20454;-61
2023/10/28 06:34:34;;;;;;;16.30;6.47;;;21.90;94.30;;;23.03;54.78;94249.03;5001251;28;20466;-63
2023/10/28 06:37:01;;;;;;;8.87;5.17;;;22.30;93.80;;;23.37;54.16;94254.66;4999877;28;20486;-66
2023/10/28 06:39:28;;;;;;;15.73;4.53;;;22.60;93.20;;;23.70;53.51;94252.41;4998638;28;20474;-66
2023/10/28 06:41:55;;;;;;;10.43;5.17;;;23.00;92.50;;;24.03;52.46;94256.31;5001105;28;20457;-67
2023/10/28 06:44:23;;;;;;;20.23;4.83;;;23.30;92.10;;;24.37;52.56;94261.78;5000070;28;20477;-64
2023/10/28 06:46:50;;;;;;;13.17;4.90;;;23.70;91.50;;;24.74;51.40;94259.53;4998863;28;20463;-64
2023/10/28 06:49:19;;;;;;;10.97;4.83;;;24.00;91.00;;;25.09;50.90;94271.13;5001000;28;20477;-64
2023/10/28 06:51:47;;;;;;;12.23;6.03;;;24.40;90.30;;;25.35;50.33;94278.53;5007838;28;20548;-66
2023/10/28 06:54:14;;;;;;;8.60;4.67;;;24.70;88.60;;;25.57;49.80;94281.28;5001638;28;20611;-62
2023/10/28 06:56:42;;;;;;;16.30;5.00;;;24.90;87.10;;;25.64;49.07;94275.72;5004050;28;20457;-63
2023/10/28 06:59:10;;;;;;;12.00;6.20;;;25.00;85.00;;;25.57;48.44;94283.97;4998337;28;20540;-65
2023/10/28 07:01:39;;;;;;;18.97;4.93;;;25.00;83.20;;;25.47;48.58;94281.16;5001297;28;20453;-68
2023/10/28 07:04:07;;;;;;;10.73;4.70;;;24.90;82.80;;;25.43;48.47;94277.31;4999142;28;20589;-67
2023/10/28 07:06:35;;;;;;;12.30;4.70;;;24.90;82.00;;;25.45;48.37;94288.63;5000499;28;20539;-63
2023/10/28 07:09:03;;;;;;;13.43;5.90;;;25.00;82.10;;;25.52;48.24;94299.25;5000912;28;20793;-63
2023/10/28 07:11:31;;;;;;;12.40;4.40;;;25.10;81.80;;;25.52;47.77;94294.69;4998072;28;20552;-66
2023/10/28 07:13:59;;;;;;;8.93;5.43;;;25.10;80.40;;;25.52;47.77;94305.44;4996336;28;20453;-63
2023/10/28 07:16:27;;;;;;;13.23;5.50;;;25.10;79.70;;;25.55;47.80;94315.72;5000571;28;20445;-64
2023/10/28 07:18:55;;;;;;;10.53;4.97;;;25.20;79.70;;;25.62;47.46;94312.84;4999880;28;20516;-64
2023/10/28 07:21:22;;;;;;;16.30;5.47;;;25.20;78.70;;;25.69;47.66;94316.19;4997728;28;20458;-64
2023/10/28 07:23:51;;;;;;;12.30;5.37;;;25.30;78.80;;;25.72;47.52;94309.50;4999751;28;20544;-64
2023/10/28 07:26:18;;;;;;;11.77;4.90;;;25.40;78.10;;;25.75;47.07;94314.41;5001234;28;20449;-63
2023/10/28 07:28:46;;;;;;;7.63;5.37;;;25.50;77.60;;;25.70;46.62;94304.38;5002593;28;20537;-67
2023/10/28 07:31:15;;;;;;;11.67;5.50;;;25.50;76.30;;;25.65;46.68;94314.25;5001564;28;21064;-69
2023/10/28 07:33:42;;;;;;;14.63;5.10;;;25.50;76.60;;;25.57;46.58;94310.09;5001427;28;20531;-63
2023/10/28 07:36:12;;;;;;;7.43;4.27;;;25.40;75.70;;;25.51;46.51;94300.31;5001915;28;20446;-64
2023/10/28 07:38:40;;;;;;;10.70;4.47;;;25.30;76.00;;;25.52;46.56;94299.25;5001357;28;20537;-66
2023/10/28 07:41:09;;;;;;;12.67;5.50;;;25.20;76.10;;;25.60;46.29;94304.22;5002220;28;20466;-67
2023/10/28 07:43:37;;;;;;;6.60;5.30;;;25.20;76.30;;;25.80;46.52;94305.56;5004291;28;20441;-63
2023/10/28 07:46:04;;;;;;;8.13;4.50;;;25.30;76.20;;;26.10;46.18;94300.59;5003076;28;20519;-64
2023/10/28 07:48:32;;;;;;;10.43;4.67;;;25.50;75.90;;;26.52;45.63;94312.66;5001685;28;20454;-64
2023/10/28 07:50:59;;;;;;;22.97;5.40;;;25.90;75.60;;;26.87;44.66;94310.63;5003103;28;20595;-62
2023/10/28 07:53:27;;;;;;;10.40;4.00;;;26.20;74.20;;;27.18;44.88;94307.09;5003090;28;20485;-63
2023/10/28 07:55:54;;;;;;;9.90;4.60;;;26.50;73.20;;;27.49;44.03;94304.66;5006498;28;20497;-63
2023/10/28 07:58:23;;;;;;;10.00;4.90;;;26.80;71.90;;;27.81;43.36;94313.75;5012921;28;21073;-67
2023/10/28 08:00:51;;;;;;;10.80;5.70;;;27.00;71.30;;;28.11;43.26;94310.44;5003246;28;20477;-66
2023/10/28 08:03:18;;;;;;;12.33;4.07;;;27.40;70.30;;;28.34;42.49;94311.91;5005615;28;20453;-67
2023/10/28 08:05:45;;;;;;;12.80;3.80;;;27.60;68.70;;;28.64;42.51;94312.28;5003482;28;21028;-68
2023/10/28 08:08:13;;;;;;;4.17;3.20;;;27.90;68.60;;;28.92;41.85;94319.94;5001202;28;20449;-64
2023/10/28 08:10:40;;;;;;;13.43;3.80;;;28.20;67.70;;;29.21;40.24;94324.84;5002852;28;21049;-65
2023/10/28 08:13:08;;;;;;;10.70;2.70;;;28.40;65.60;;;29.43;40.42;94327.28;5001123;28;20450;-67
2023/10/28 08:15:39;;;;;;;4.07;3.03;;;28.60;64.40;;;29.53;40.00;94326.47;5004265;28;20880;-66
2023/10/28 08:18:07;;;;;;;8.33;3.60;;;28.70;64.00;;;29.56;39.56;94331.34;5000996;28;20541;-67
2023/10/28 08:20:34;;;;;;;7.00;3.40;;;28.90;62.90;;;29.55;39.48;94321.59;5002393;28;20572;-68
2023/10/28 08:23:01;;;;;;;6.80;3.17;;;28.90;62.80;;;29.60;39.63;94321.56;5003602;28;20635;-64
2023/10/28 08:25:29;;;;;;;8.60;3.10;;;28.90;62.50;;;29.77;39.39;94329.41;5001247;28;20473;-68
2023/10/28 08:27:56;;;;;;;13.90;3.00;;;29.00;62.30;;;29.96;39.63;94321.56;4998409;28;20541;-63
2023/10/28 08:30:24;;;;;;;6.73;2.97;;;29.20;62.50;;;30.14;38.64;94335.59;5002880;28;20503;-62
2023/10/28 08:32:52;;;;;;;10.47;4.23;;;29.40;61.80;;;30.46;38.73;94334.41;5000523;28;20454;-61
2023/10/28 08:35:20;;;;;;;17.17;3.90;;;29.60;61.10;;;30.75;37.65;94331.81;5003962;28;20477;-61
2023/10/28 08:37:48;;;;;;;6.60;2.77;;;29.90;59.90;;;31.05;38.10;94333.59;5001782;28;20456;-62
2023/10/28 08:40:17;;;;;;;8.77;3.40;;;30.20;60.20;;;31.36;37.38;94330.66;5002524;28;21013;-62
2023/10/28 08:42:45;;;;;;;17.37;4.10;;;30.50;58.80;;;31.52;36.36;94328.59;5000940;28;20560;-73
2023/10/28 08:45:13;;;;;;;11.63;2.80;;;30.70;57.70;;;31.65;36.56;94329.88;4999290;28;21053;-62
2023/10/28 08:47:41;;;;;;;9.87;3.77;;;30.80;57.20;;;31.84;36.42;94340.88;5002003;28;20289;-61
2023/10/28 08:50:10;;;;;;;7.40;3.37;;;31.00;57.00;;;31.99;36.13;94338.00;5001906;28;20434;-69
2023/10/28 08:52:39;;;;;;;12.80;2.73;;;31.20;56.80;;;32.19;35.96;94329.91;4999807;28;20210;-69
2023/10/28 08:55:10;;;;;;;10.70;3.10;;;31.30;56.70;;;32.36;35.83;94327.53;5001482;28;20229;-62
2023/10/28 08:57:38;;;;;;;7.60;2.70;;;31.50;56.30;;;32.40;35.20;94320.41;5002432;28;20202;-62
2023/10/28 09:00:14;;;;;;;8.00;3.00;;;31.60;55.60;;;32.41;34.48;94327.50;5001903;28;20344;-68
2023/10/28 09:02:43;;;;;;;8.10;3.27;;;31.60;54.40;;;32.40;35.14;94325.06;4999349;28;20205;-63
2023/10/28 09:05:13;;;;;;;6.80;2.97;;;31.60;54.60;;;32.32;35.16;94329.22;5003056;28;20702;-62
2023/10/28 09:07:40;;;;;;;10.40;3.37;;;31.60;55.00;;;31.99;35.13;94321.66;4999606;28;20273;-61
2023/10/28 09:10:10;;;;;;;14.03;4.30;;;31.40;54.70;;;31.77;35.03;94322.16;5000661;28;20310;-67
2023/10/28 09:12:37;;;;;;;9.40;3.73;;;31.10;54.40;;;31.36;35.59;94330.66;5002746;28;20202;-68
2023/10/28 09:15:06;;;;;;;6.23;2.93;;;30.80;54.60;;;30.96;36.17;94343.41;4999272;28;20222;-62
2023/10/28 09:17:33;;;;;;;5.63;3.83;;;30.40;55.40;;;30.88;36.49;94335.84;5002351;28;20277;-68
2023/10/28 09:20:00;;;;;;;12.93;4.60;;;30.30;55.90;;;31.02;35.88;94336.88;5000102;28;20237;-69
2023/10/28 09:22:31;;;;;;;12.93;2.27;;;30.20;55.30;;;30.97;35.09;94326.03;5000440;28;20203;-69
2023/10/28 09:24:59;;;;;;;8.67;2.40;;;30.30;54.50;;;30.73;34.64;94323.97;5001289;28;20861;-68
2023/10/28 09:27:26;;;;;;;6.80;2.40;;;30.10;53.40;;;30.45;34.46;94321.97;5000340;28;20213;-67
2023/10/28 09:30:05;;;;;;;5.03;1.60;;;29.80;52.40;;;29.89;32.67;94321.03;5001820;28;20290;-61
2023/10/28 09:32:33;;;;;;;3.00;1.43;;;29.50;50.90;;;29.36;33.58;94317.78;5001913;28;20228;-62
2023/10/28 09:35:05;;;;;;;6.70;1.60;;;29.00;51.40;;;28.91;34.59;94320.19;5000537;28;20580;-61
2023/10/28 09:37:35;;;;;;;15.67;1.87;;;28.50;51.50;;;28.64;34.89;94323.09;5002037;28;20202;-62
2023/10/28 09:40:04;;;;;;;5.33;1.43;;;28.20;52.10;;;28.60;34.69;94323.66;5000906;28;20226;-62
2023/10/28 09:42:32;;;;;;;4.07;1.83;;;28.10;52.90;;;28.83;33.72;94316.13;5003775;28;20977;-60
2023/10/28 09:44:59;;;;;;;10.13;1.50;;;28.20;52.20;;;29.04;34.07;94319.66;5000615;28;20501;-69
2023/10/28 09:47:35;;;;;;;7.10;2.23;;;28.30;52.20;;;29.32;34.00;94317.53;4999442;28;20568;-62
2023/10/28 09:50:04;;;;;;;8.03;1.33;;;28.60;51.80;;;29.63;32.74;94322.94;4999896;28;20473;-68
2023/10/28 09:52:33;;;;;;;11.43;2.17;;;28.80;51.30;;;29.57;32.52;94319.41;4999431;28;20525;-61
2023/10/28 09:55:05;;;;;;;3.87;1.80;;;28.90;50.50;;;29.42;32.00;94316.72;5000775;28;20504;-61
2023/10/28 09:57:33;;;;;;;4.03;1.40;;;28.80;49.30;;;29.19;32.23;94320.75;5001902;28;20519;-62
2023/10/28 10:00:01;;;;;;;7.67;1.63;;;28.60;49.90;;;28.96;32.99;94304.75;4999930;28;20485;-69
2023/10/28 10:02:33;;;;;;;2.70;1.47;;;28.50;50.60;;;29.00;32.67;94293.38;4998536;28;20458;-61
2023/10/28 10:05:06;;;;;;;5.10;1.20;;;28.40;50.40;;;29.18;33.27;94305.59;5000430;28;20474;-61
2023/10/28 10:07:36;;;;;;;7.03;4.60;;;28.50;50.20;;;29.48;32.80;94315.63;5001457;28;20521;-68
2023/10/28 10:10:13;;;;;;;7.40;1.80;;;28.80;50.20;;;29.74;32.25;94296.63;5000592;28;20474;-62
2023/10/28 10:12:41;;;;;;;5.87;1.70;;;29.00;50.00;;;29.93;31.55;94286.84;4999239;28;20943;-60
2023/10/28 10:15:10;;;;;;;4.80;2.20;;;29.20;49.30;;;30.04;31.19;94280.31;4999084;28;20474;-62
2023/10/28 10:17:42;;;;;;;4.80;1.20;;;29.40;48.50;;;30.17;31.30;94288.94;4998884;28;20461;-61
2023/10/28 10:20:11;;;;;;;7.07;1.80;;;29.50;48.50;;;30.21;31.46;94279.16;4999776;28;20469;-68